sensor_id;sensor_type;location;lat;lon;timestamp;pressure;altitude;pressure_sealevel;temperature;humidity
43155;BME280;34212;51.018;13.586;2023-05-07T05:04:57;98281.63;;;12.19;73.38
43155;BME280;34212;51.018;13.586;2023-05-07T05:10:01;98275.47;;;12.19;73.59
43155;BME280;34212;51.018;13.586;2023-05-07T05:15:07;98272.44;;;12.22;73.07
43155;BME280;34212;51.018;13.586;2023-05-07T05:20:09;98269.75;;;12.22;73.32
43155;BME280;34212;51.018;13.586;2023-05-07T05:25:14;98282.94;;;12.23;73.38
43155;BME280;34212;51.018;13.586;2023-05-07T05:30:16;98289.06;;;12.32;73.16
43155;BME280;34212;51.018;13.586;2023-05-07T05:35:20;98293.38;;;12.33;73.07
43155;BME280;34212;51.018;13.586;2023-05-07T05:40:23;98303.44;;;12.31;73.07
43155;BME280;34212;51.018;13.586;2023-05-07T05:45:24;98294.06;;;12.35;73.39
43155;BME280;34212;51.018;13.586;2023-05-07T05:50:26;98299.41;;;12.35;73.15
43155;BME280;34212;51.018;13.586;2023-05-07T05:55:29;98314.78;;;12.33;73.12
43155;BME280;34212;51.018;13.586;2023-05-07T06:00:31;98310.66;;;12.31;73.10
43155;BME280;34212;51.018;13.586;2023-05-07T06:05:37;98329.00;;;12.34;73.32
43155;BME280;34212;51.018;13.586;2023-05-07T06:10:39;98327.09;;;12.42;73.38
43155;BME280;34212;51.018;13.586;2023-05-07T06:15:42;98333.06;;;12.53;73.10
43155;BME280;34212;51.018;13.586;2023-05-07T06:20:46;98339.13;;;12.61;72.80
43155;BME280;34212;51.018;13.586;2023-05-07T06:25:57;98337.03;;;12.57;72.63
43155;BME280;34212;51.018;13.586;2023-05-07T06:31:14;98327.88;;;12.51;72.86
43155;BME280;34212;51.018;13.586;2023-05-07T06:36:20;98344.47;;;12.46;73.09
43155;BME280;34212;51.018;13.586;2023-05-07T06:41:22;98345.81;;;12.42;73.09
43155;BME280;34212;51.018;13.586;2023-05-07T06:46:23;98363.53;;;12.43;72.53
43155;BME280;34212;51.018;13.586;2023-05-07T06:51:25;98346.53;;;12.36;72.42
43155;BME280;34212;51.018;13.586;2023-05-07T06:56:27;98356.75;;;12.33;72.52
43155;BME280;34212;51.018;13.586;2023-05-07T07:01:29;98351.34;;;12.41;72.53
43155;BME280;34212;51.018;13.586;2023-05-07T07:06:31;98366.69;;;12.47;72.43
43155;BME280;34212;51.018;13.586;2023-05-07T07:11:35;98363.81;;;12.48;72.04
43155;BME280;34212;51.018;13.586;2023-05-07T07:16:37;98363.47;;;12.52;72.64
43155;BME280;34212;51.018;13.586;2023-05-07T07:21:39;98363.41;;;12.60;72.17
43155;BME280;34212;51.018;13.586;2023-05-07T07:26:41;98363.72;;;12.65;72.08
43155;BME280;34212;51.018;13.586;2023-05-07T07:31:44;98378.28;;;12.62;71.66
43155;BME280;34212;51.018;13.586;2023-05-07T07:36:46;98363.41;;;12.60;71.53
43155;BME280;34212;51.018;13.586;2023-05-07T07:41:51;98365.25;;;12.59;71.73
43155;BME280;34212;51.018;13.586;2023-05-07T07:46:58;98373.44;;;12.58;71.62
43155;BME280;34212;51.018;13.586;2023-05-07T07:52:01;98383.03;;;12.52;71.23
43155;BME280;34212;51.018;13.586;2023-05-07T07:57:04;98387.25;;;12.46;71.16
43155;BME280;34212;51.018;13.586;2023-05-07T08:02:07;98396.81;;;12.41;71.01
43155;BME280;34212;51.018;13.586;2023-05-07T08:07:12;98399.66;;;12.39;71.32
43155;BME280;34212;51.018;13.586;2023-05-07T08:12:19;98400.00;;;12.36;71.00
43155;BME280;34212;51.018;13.586;2023-05-07T08:17:22;98406.00;;;12.46;71.20
43155;BME280;34212;51.018;13.586;2023-05-07T08:22:25;98396.81;;;12.64;71.16
43155;BME280;34212;51.018;13.586;2023-05-07T08:27:30;98396.41;;;12.75;70.36
43155;BME280;34212;51.018;13.586;2023-05-07T08:32:35;98391.59;;;12.93;70.51
43155;BME280;34212;51.018;13.586;2023-05-07T08:37:36;98399.88;;;12.99;70.34
43155;BME280;34212;51.018;13.586;2023-05-07T08:42:39;98399.88;;;12.99;70.16
43155;BME280;34212;51.018;13.586;2023-05-07T08:48:09;98417.63;;;13.00;70.39
43155;BME280;34212;51.018;13.586;2023-05-07T08:53:13;98417.75;;;13.06;70.39
43155;BME280;34212;51.018;13.586;2023-05-07T08:58:15;98414.34;;;13.12;69.68
43155;BME280;34212;51.018;13.586;2023-05-07T09:03:20;98426.19;;;13.18;69.78
43155;BME280;34212;51.018;13.586;2023-05-07T09:08:33;98427.97;;;13.26;69.71
43155;BME280;34212;51.018;13.586;2023-05-07T09:13:40;98425.84;;;13.36;69.65
43155;BME280;34212;51.018;13.586;2023-05-07T09:18:44;98432.53;;;13.55;69.14
43155;BME280;34212;51.018;13.586;2023-05-07T09:23:53;98429.78;;;13.63;68.56
43155;BME280;34212;51.018;13.586;2023-05-07T09:29:07;98433.56;;;13.69;68.61
43155;BME280;34212;51.018;13.586;2023-05-07T09:34:21;98433.84;;;13.74;68.78
43155;BME280;34212;51.018;13.586;2023-05-07T09:39:52;98428.28;;;13.75;68.48
43155;BME280;34212;51.018;13.586;2023-05-07T09:45:02;98425.91;;;13.80;68.53
43155;BME280;34212;51.018;13.586;2023-05-07T09:50:17;98424.59;;;14.06;68.60
43155;BME280;34212;51.018;13.586;2023-05-07T09:55:30;98427.31;;;14.27;68.39
43155;BME280;34212;51.018;13.586;2023-05-07T10:00:41;98430.19;;;14.26;67.96
43155;BME280;34212;51.018;13.586;2023-05-07T10:05:50;98441.84;;;14.33;67.62
43155;BME280;34212;51.018;13.586;2023-05-07T10:10:59;98442.91;;;14.39;67.01
43155;BME280;34212;51.018;13.586;2023-05-07T10:16:12;98436.53;;;14.54;67.05
43155;BME280;34212;51.018;13.586;2023-05-07T10:21:20;98438.44;;;14.61;66.23
43155;BME280;34212;51.018;13.586;2023-05-07T10:26:33;98441.84;;;14.69;66.23
43155;BME280;34212;51.018;13.586;2023-05-07T10:37:21;98442.44;;;14.86;65.46
43155;BME280;34212;51.018;13.586;2023-05-07T10:42:33;98437.53;;;14.90;64.64
43155;BME280;34212;51.018;13.586;2023-05-07T10:47:35;98451.19;;;15.16;65.05
43155;BME280;34212;51.018;13.586;2023-05-07T10:52:37;98431.50;;;15.37;64.55
43155;BME280;34212;51.018;13.586;2023-05-07T10:57:43;98447.03;;;15.42;64.25
43155;BME280;34212;51.018;13.586;2023-05-07T11:03:14;98456.63;;;15.51;64.16
43155;BME280;34212;51.018;13.586;2023-05-07T11:08:22;98445.78;;;15.38;63.87
43155;BME280;34212;51.018;13.586;2023-05-07T11:13:48;98442.06;;;15.39;63.35
43155;BME280;34212;51.018;13.586;2023-05-07T11:19:07;98445.78;;;15.38;63.27
43155;BME280;34212;51.018;13.586;2023-05-07T11:24:17;98444.91;;;15.31;63.25
43155;BME280;34212;51.018;13.586;2023-05-07T11:29:39;98444.03;;;15.23;63.18
43155;BME280;34212;51.018;13.586;2023-05-07T11:35:10;98447.72;;;15.22;63.28
43155;BME280;34212;51.018;13.586;2023-05-07T11:40:30;98438.56;;;15.17;63.62
43155;BME280;34212;51.018;13.586;2023-05-07T11:45:41;98445.63;;;15.18;63.88
43155;BME280;34212;51.018;13.586;2023-05-07T11:51:04;98440.00;;;15.41;63.45
43155;BME280;34212;51.018;13.586;2023-05-07T11:56:10;98442.78;;;15.54;63.39
43155;BME280;34212;51.018;13.586;2023-05-07T12:01:28;98445.88;;;15.79;62.93
43155;BME280;34212;51.018;13.586;2023-05-07T12:06:39;98456.97;;;16.04;62.62
43155;BME280;34212;51.018;13.586;2023-05-07T12:12:05;98455.00;;;16.20;61.78
43155;BME280;34212;51.018;13.586;2023-05-07T12:17:14;98455.22;;;16.25;61.49
43155;BME280;34212;51.018;13.586;2023-05-07T12:28:01;98462.06;;;16.21;61.79
43155;BME280;34212;51.018;13.586;2023-05-07T12:33:25;98468.44;;;16.20;61.93
43155;BME280;34212;51.018;13.586;2023-05-07T12:38:37;98455.63;;;16.22;61.96
43155;BME280;34212;51.018;13.586;2023-05-07T12:43:48;98440.94;;;16.17;61.40
43155;BME280;34212;51.018;13.586;2023-05-07T12:48:58;98458.72;;;16.19;61.75
43155;BME280;34212;51.018;13.586;2023-05-07T12:54:06;98450.41;;;16.13;61.15
43155;BME280;34212;51.018;13.586;2023-05-07T12:59:36;98450.38;;;16.07;61.27
43155;BME280;34212;51.018;13.586;2023-05-07T13:05:14;98449.56;;;16.06;61.64
43155;BME280;34212;51.018;13.586;2023-05-07T13:10:43;98448.19;;;16.17;61.41
43155;BME280;34212;51.018;13.586;2023-05-07T13:15:53;98446.13;;;16.26;62.20
43155;BME280;34212;51.018;13.586;2023-05-07T13:21:02;98443.00;;;16.77;61.60
43155;BME280;34212;51.018;13.586;2023-05-07T13:26:35;98433.53;;;17.07;60.61
43155;BME280;34212;51.018;13.586;2023-05-07T13:32:04;98425.44;;;17.01;60.60
43155;BME280;34212;51.018;13.586;2023-05-07T13:37:18;98429.78;;;16.95;60.79
43155;BME280;34212;51.018;13.586;2023-05-07T13:42:31;98422.72;;;16.81;60.51
43155;BME280;34212;51.018;13.586;2023-05-07T13:47:52;98428.88;;;16.75;59.96
43155;BME280;34212;51.018;13.586;2023-05-07T13:53:15;98423.13;;;16.78;59.73
43155;BME280;34212;51.018;13.586;2023-05-07T13:58:28;98434.13;;;16.83;60.02
43155;BME280;34212;51.018;13.586;2023-05-07T14:15:27;98432.81;;;16.72;60.00
43155;BME280;34212;51.018;13.586;2023-05-07T14:20:43;98424.53;;;16.60;60.08
43155;BME280;34212;51.018;13.586;2023-05-07T14:26:09;98420.75;;;16.48;59.61
43155;BME280;34212;51.018;13.586;2023-05-07T14:31:46;98421.56;;;16.42;59.65
43155;BME280;34212;51.018;13.586;2023-05-07T14:37:07;98404.13;;;16.38;60.50
43155;BME280;34212;51.018;13.586;2023-05-07T14:42:41;98405.03;;;16.52;60.11
43155;BME280;34212;51.018;13.586;2023-05-07T14:47:52;98412.06;;;16.66;59.13
43155;BME280;34212;51.018;13.586;2023-05-07T14:53:21;98414.34;;;16.62;58.87
43155;BME280;34212;51.018;13.586;2023-05-07T14:58:23;98430.25;;;16.44;58.27
43155;BME280;34212;51.018;13.586;2023-05-07T15:03:40;98432.66;;;16.26;58.88
43155;BME280;34212;51.018;13.586;2023-05-07T15:08:59;98427.09;;;16.27;58.92
43155;BME280;34212;51.018;13.586;2023-05-07T15:14:53;98425.19;;;16.14;58.84
43155;BME280;34212;51.018;13.586;2023-05-07T15:20:21;98427.63;;;16.09;58.39
43155;BME280;34212;51.018;13.586;2023-05-07T15:25:40;98431.97;;;16.10;59.16
43155;BME280;34212;51.018;13.586;2023-05-07T15:31:15;98428.03;;;16.06;59.21
43155;BME280;34212;51.018;13.586;2023-05-07T15:37:03;98431.53;;;16.07;59.09
43155;BME280;34212;51.018;13.586;2023-05-07T15:48:45;98447.78;;;15.85;60.07
43155;BME280;34212;51.018;13.586;2023-05-07T15:54:05;98458.53;;;15.85;59.58
43155;BME280;34212;51.018;13.586;2023-05-07T15:59:43;98454.59;;;15.81;59.22
43155;BME280;34212;51.018;13.586;2023-05-07T16:05:03;98461.06;;;15.65;59.67
43155;BME280;34212;51.018;13.586;2023-05-07T16:10:40;98456.63;;;15.51;59.71
43155;BME280;34212;51.018;13.586;2023-05-07T16:16:12;98460.38;;;15.57;59.94
43155;BME280;34212;51.018;13.586;2023-05-07T16:21:47;98448.16;;;15.54;59.75
43155;BME280;34212;51.018;13.586;2023-05-07T16:27:22;98450.81;;;15.47;60.05
43155;BME280;34212;51.018;13.586;2023-05-07T16:32:39;98452.72;;;15.82;60.11
43155;BME280;34212;51.018;13.586;2023-05-07T16:38:35;98455.13;;;16.46;58.62
43155;BME280;34212;51.018;13.586;2023-05-07T16:44:43;98462.97;;;16.48;58.19
43155;BME280;34212;51.018;13.586;2023-05-07T16:50:12;98445.31;;;17.60;56.64
43155;BME280;34212;51.018;13.586;2023-05-07T16:55:32;98444.47;;;17.66;56.60
43155;BME280;34212;51.018;13.586;2023-05-07T17:01:26;98445.03;;;16.75;57.04
43155;BME280;34212;51.018;13.586;2023-05-07T17:06:55;98447.50;;;16.08;57.76
43155;BME280;34212;51.018;13.586;2023-05-07T17:12:52;98464.94;;;15.56;58.29
43155;BME280;34212;51.018;13.586;2023-05-07T17:18:52;98470.91;;;15.23;58.41
43155;BME280;34212;51.018;13.586;2023-05-07T17:24:21;98479.34;;;14.99;58.67
43155;BME280;34212;51.018;13.586;2023-05-07T17:30:08;98480.81;;;14.80;58.97
43155;BME280;34212;51.018;13.586;2023-05-07T17:35:57;98490.94;;;14.63;59.01
43155;BME280;34212;51.018;13.586;2023-05-07T17:48:00;98484.88;;;14.10;59.13
43155;BME280;34212;51.018;13.586;2023-05-07T17:54:02;98490.97;;;13.89;59.66
43155;BME280;34212;51.018;13.586;2023-05-07T18:00:10;98488.94;;;13.76;59.81
43155;BME280;34212;51.018;13.586;2023-05-07T18:18:16;98507.91;;;13.52;59.98
43155;BME280;34212;51.018;13.586;2023-05-07T18:24:01;98523.22;;;13.20;59.91
43155;BME280;34212;51.018;13.586;2023-05-07T18:29:02;98517.34;;;13.02;59.84
43155;BME280;34212;51.018;13.586;2023-05-07T18:34:04;98529.19;;;12.84;60.21
43155;BME280;34212;51.018;13.586;2023-05-07T18:39:06;98534.63;;;12.68;60.13
43155;BME280;34212;51.018;13.586;2023-05-07T18:44:08;98542.38;;;12.55;60.42
43155;BME280;34212;51.018;13.586;2023-05-07T18:49:10;98541.41;;;12.47;60.71
43155;BME280;34212;51.018;13.586;2023-05-07T18:54:11;98549.44;;;12.39;60.79
43155;BME280;34212;51.018;13.586;2023-05-07T18:59:13;98560.84;;;12.33;60.89
43155;BME280;34212;51.018;13.586;2023-05-07T19:04:14;98554.88;;;12.23;60.60
43155;BME280;34212;51.018;13.586;2023-05-07T19:09:18;98562.41;;;12.11;60.99
43155;BME280;34212;51.018;13.586;2023-05-07T19:14:19;98554.94;;;11.98;61.40
43155;BME280;34212;51.018;13.586;2023-05-07T19:19:21;98547.09;;;11.89;61.76
43155;BME280;34212;51.018;13.586;2023-05-07T19:24:23;98563.28;;;11.79;61.43
43155;BME280;34212;51.018;13.586;2023-05-07T19:29:24;98566.28;;;11.68;61.90
43155;BME280;34212;51.018;13.586;2023-05-07T19:34:26;98565.63;;;11.57;62.19
43155;BME280;34212;51.018;13.586;2023-05-07T19:39:27;98567.66;;;11.47;62.22
43155;BME280;34212;51.018;13.586;2023-05-07T19:44:29;98574.69;;;11.40;62.54
43155;BME280;34212;51.018;13.586;2023-05-07T19:49:30;98580.00;;;11.32;62.29
43155;BME280;34212;51.018;13.586;2023-05-07T19:54:32;98602.34;;;11.23;62.21
43155;BME280;34212;51.018;13.586;2023-05-07T19:59:33;98598.50;;;11.17;62.28
43155;BME280;34212;51.018;13.586;2023-05-07T20:04:35;98604.34;;;11.13;62.55
43155;BME280;34212;51.018;13.586;2023-05-07T20:09:38;98597.97;;;11.05;62.48
43155;BME280;34212;51.018;13.586;2023-05-07T20:14:39;98607.31;;;11.01;63.25
43155;BME280;34212;51.018;13.586;2023-05-07T20:19:41;98607.28;;;10.93;63.32
43155;BME280;34212;51.018;13.586;2023-05-07T20:24:43;98611.78;;;10.84;63.02
43155;BME280;34212;51.018;13.586;2023-05-07T20:29:47;98610.41;;;10.80;63.39
43155;BME280;34212;51.018;13.586;2023-05-07T20:34:49;98620.25;;;10.80;63.67
43155;BME280;34212;51.018;13.586;2023-05-07T20:39:50;98628.63;;;10.85;63.46
43155;BME280;34212;51.018;13.586;2023-05-07T20:44:52;98625.13;;;10.93;63.33
43155;BME280;34212;51.018;13.586;2023-05-07T20:49:53;98630.31;;;10.94;63.50
43155;BME280;34212;51.018;13.586;2023-05-07T20:54:55;98626.13;;;10.92;63.58
43155;BME280;34212;51.018;13.586;2023-05-07T20:59:56;98624.97;;;11.02;63.43
43155;BME280;34212;51.018;13.586;2023-05-07T21:04:58;98629.34;;;11.12;63.50
43155;BME280;34212;51.018;13.586;2023-05-07T21:09:59;98619.38;;;11.22;63.41
43155;BME280;34212;51.018;13.586;2023-05-07T21:15:01;98626.88;;;11.26;63.47
43155;BME280;34212;51.018;13.586;2023-05-07T21:20:02;98627.22;;;11.23;63.74
43155;BME280;34212;51.018;13.586;2023-05-07T21:25:04;98630.72;;;11.16;63.74
43155;BME280;34212;51.018;13.586;2023-05-07T21:30:06;98636.88;;;11.16;63.80
43155;BME280;34212;51.018;13.586;2023-05-07T21:35:08;98643.19;;;11.15;64.09
43155;BME280;34212;51.018;13.586;2023-05-07T21:40:10;98645.03;;;11.15;63.85
43155;BME280;34212;51.018;13.586;2023-05-07T21:45:12;98642.69;;;11.12;64.06
43155;BME280;34212;51.018;13.586;2023-05-07T21:50:13;98645.69;;;11.08;63.88
43155;BME280;34212;51.018;13.586;2023-05-07T21:55:19;98637.69;;;11.00;63.90
